createdAt,value
2018-09-12T00:00:51.776Z,101410.10
2018-09-12T00:05:54.787Z,101413.84
2018-09-12T00:10:57.882Z,101412.70
2018-09-12T00:16:02.993Z,101408.20
2018-09-12T00:21:08.408Z,101406.70
2018-09-12T00:26:12.800Z,101395.99
2018-09-12T00:31:15.934Z,101387.00
2018-09-12T00:36:18.986Z,101376.31
2018-09-12T00:41:21.973Z,101382.62
2018-09-12T00:46:25.067Z,101374.70
2018-09-12T00:51:28.054Z,101379.54
2018-09-12T00:56:34.464Z,101378.05
2018-09-12T01:01:38.444Z,101367.48
2018-09-12T01:06:42.369Z,101370.16
2018-09-12T01:11:45.439Z,101371.86
2018-09-12T01:16:53.087Z,101369.25
2018-09-12T01:21:58.754Z,101373.31
2018-09-12T01:27:05.712Z,101370.52
2018-09-12T01:32:10.336Z,101370.61
2018-09-12T01:37:14.235Z,101365.82
2018-09-12T01:42:17.230Z,101371.12
2018-09-12T01:47:20.294Z,101369.11
2018-09-12T01:52:23.354Z,101365.53
2018-09-12T01:57:26.381Z,101360.69
2018-09-12T02:02:29.526Z,101361.46
2018-09-12T02:07:38.021Z,101369.75
2018-09-12T02:12:42.578Z,101371.84
2018-09-12T02:17:45.686Z,101371.44
2018-09-12T02:22:48.666Z,101372.34
2018-09-12T02:27:51.657Z,101377.48
2018-09-12T02:32:54.647Z,101373.12
2018-09-12T02:37:57.686Z,101375.56
2018-09-12T02:43:05.772Z,101299.11
2018-09-12T02:48:09.955Z,101364.71
2018-09-12T02:53:12.938Z,101356.66
2018-09-12T02:58:15.940Z,101359.13
2018-09-12T03:03:18.927Z,101359.26
2018-09-12T03:08:22.010Z,101345.98
2018-09-12T03:13:25.042Z,101350.24
2018-09-12T03:18:32.709Z,101350.54
2018-09-12T03:23:38.113Z,101351.15
2018-09-12T03:28:42.723Z,101347.62
2018-09-12T03:33:45.807Z,101334.95
2018-09-12T03:38:48.814Z,101334.51
2018-09-12T03:43:51.838Z,101332.77
2018-09-12T03:48:54.820Z,101321.47
2018-09-12T03:53:58.965Z,101324.19
2018-09-12T03:59:06.131Z,101320.03
2018-09-12T04:04:11.197Z,101335.22
2018-09-12T04:09:14.283Z,101334.83
2018-09-12T04:14:17.284Z,101329.11
2018-09-12T04:19:20.361Z,101335.77
2018-09-12T04:24:23.459Z,101332.84
2018-09-12T04:29:26.426Z,101324.13
2018-09-12T04:34:31.434Z,101331.81
2018-09-12T04:39:38.624Z,101332.17
2018-09-12T04:44:46.743Z,101334.26
2018-09-12T04:49:51.340Z,101329.94
2018-09-12T04:54:54.375Z,101325.19
2018-09-12T04:59:57.386Z,101327.42
2018-09-12T05:05:00.774Z,101329.34
2018-09-12T05:10:04.874Z,101323.43
2018-09-12T05:15:07.918Z,101329.98
2018-09-12T05:20:10.956Z,101325.88
2018-09-12T05:25:14.068Z,101332.70
2018-09-12T05:30:18.587Z,101341.02
2018-09-12T05:35:23.053Z,101346.49
2018-09-12T05:40:29.562Z,101361.93
2018-09-12T05:45:34.988Z,101359.80
2018-09-12T05:50:38.036Z,101359.63
2018-09-12T05:55:41.074Z,101364.27
2018-09-12T06:00:44.214Z,101361.30
2018-09-12T06:05:47.233Z,101363.98
2018-09-12T06:10:50.911Z,101368.42
2018-09-12T06:15:56.989Z,101369.47
2018-09-12T06:21:03.034Z,101361.80
2018-09-12T06:26:07.390Z,101365.14
2018-09-12T06:31:10.416Z,101367.73
2018-09-12T06:36:13.455Z,101358.32
2018-09-12T06:41:16.518Z,101357.18
2018-09-12T06:46:19.621Z,101358.71
2018-09-12T06:51:22.632Z,101368.23
2018-09-12T06:56:31.052Z,101360.14
2018-09-12T07:01:36.845Z,101357.64
2018-09-12T07:06:39.962Z,101354.73
2018-09-12T07:11:43.107Z,101353.08
2018-09-12T07:16:46.380Z,101363.17
2018-09-12T07:21:50.319Z,101360.03
2018-09-12T07:26:54.988Z,101340.12
2018-09-12T07:32:02.550Z,101343.36
2018-09-12T07:37:05.858Z,101354.27
2018-09-12T07:42:09.412Z,101346.50
2018-09-12T07:47:12.467Z,101355.84
2018-09-12T07:52:15.527Z,101353.28
2018-09-12T07:57:20.096Z,101349.36
2018-09-12T08:02:26.007Z,101346.67
2018-09-12T08:07:31.317Z,101355.58
2018-09-12T08:12:35.134Z,101377.88
2018-09-12T08:17:38.213Z,101378.11
2018-09-12T08:22:41.230Z,101382.36
2018-09-12T08:27:44.413Z,101370.22
2018-09-12T08:32:48.528Z,101378.73
2018-09-12T08:37:53.246Z,101381.97
2018-09-12T08:43:00.048Z,101391.23
2018-09-12T08:48:03.878Z,101408.72
2018-09-12T08:53:06.891Z,101403.72
2018-09-12T08:58:09.917Z,101409.81
2018-09-12T09:03:12.927Z,101412.78
2018-09-12T09:08:15.962Z,101418.62
2018-09-12T09:13:20.797Z,101415.45
2018-09-12T09:18:26.797Z,101424.58
2018-09-12T09:23:32.282Z,101428.47
2018-09-12T09:28:36.976Z,101439.41
2018-09-12T09:33:42.638Z,101446.34
2018-09-12T09:38:45.949Z,101461.55
2018-09-12T09:43:49.007Z,101465.96
2018-09-12T09:48:52.030Z,101478.91
2018-09-12T09:53:55.087Z,101477.67
2018-09-12T09:58:58.101Z,101485.30
2018-09-12T10:04:08.158Z,101503.74
2018-09-12T10:09:17.518Z,101510.00
2018-09-12T10:14:20.501Z,101505.48
2018-09-12T10:19:23.574Z,101527.17
2018-09-12T10:24:26.679Z,101531.27
2018-09-12T10:29:30.032Z,101532.53
2018-09-12T10:34:38.620Z,101522.80
2018-09-12T10:39:42.872Z,101530.69
2018-09-12T10:44:45.939Z,101536.14
2018-09-12T10:49:49.001Z,101528.07
2018-09-12T10:54:52.010Z,101530.39
2018-09-12T10:59:55.036Z,101532.02
2018-09-12T11:04:58.066Z,101547.11
2018-09-12T11:10:05.736Z,101544.03
2018-09-12T11:15:09.930Z,101558.83
2018-09-12T11:20:13.710Z,101573.20
2018-09-12T11:25:17.845Z,101571.38
2018-09-12T11:30:21.844Z,101575.09
2018-09-12T11:35:26.167Z,101592.30
2018-09-12T11:40:30.386Z,101589.41
2018-09-12T11:45:36.670Z,101591.03
2018-09-12T11:50:39.870Z,101595.34
2018-09-12T11:55:42.899Z,101600.78
2018-09-12T12:00:47.077Z,101602.78
2018-09-12T12:05:50.598Z,101616.72
2018-09-12T12:10:54.265Z,101619.88
2018-09-12T12:15:58.376Z,101625.55
2018-09-12T12:21:03.938Z,101627.17
2018-09-12T12:26:07.754Z,101630.83
2018-09-12T12:31:11.495Z,101637.45
2018-09-12T12:36:15.551Z,101648.52
2018-09-12T12:41:19.601Z,101652.36
2018-09-12T12:46:24.153Z,101662.55
2018-09-12T12:51:27.267Z,101667.73
2018-09-12T12:56:30.292Z,101661.49
2018-09-12T13:01:34.002Z,101681.33
2018-09-12T13:06:38.433Z,101667.54
2018-09-12T13:11:44.000Z,101654.98
2018-09-12T13:16:50.455Z,101657.77
2018-09-12T13:21:54.202Z,101665.64
2018-09-12T13:26:57.531Z,101672.31
2018-09-12T13:32:00.636Z,101682.97
2018-09-12T13:37:03.722Z,101662.12
2018-09-12T13:42:06.828Z,101662.21
2018-09-12T13:47:09.803Z,101663.16
2018-09-12T13:52:17.501Z,101672.23
2018-09-12T13:57:21.336Z,101687.37
2018-09-12T14:02:26.071Z,101710.14
2018-09-12T14:07:29.197Z,101709.52
2018-09-12T14:12:32.305Z,101705.56
2018-09-12T14:17:35.483Z,101703.69
2018-09-12T14:22:38.637Z,101697.09
2018-09-12T14:27:42.036Z,101690.80
2018-09-12T14:32:45.438Z,101682.55
2018-09-12T14:37:50.805Z,101697.90
2018-09-12T14:42:54.718Z,101685.19
2018-09-12T14:47:57.965Z,101672.62
2018-09-12T14:53:01.512Z,101683.48
2018-09-12T14:58:04.717Z,101696.62
2018-09-12T15:03:07.765Z,101688.64
2018-09-12T15:08:10.828Z,101687.35
2018-09-12T15:13:17.925Z,101683.78
2018-09-12T15:18:24.076Z,101676.66
2018-09-12T15:23:27.163Z,101676.20
2018-09-12T15:28:30.207Z,101681.53
2018-09-12T15:33:33.250Z,101679.46
2018-09-12T15:38:36.382Z,101691.31
2018-09-12T15:43:39.522Z,101695.04
2018-09-12T15:48:43.995Z,101700.45
2018-09-12T15:53:49.540Z,101700.16
2018-09-12T15:58:54.364Z,101705.51
2018-09-12T16:03:57.715Z,101692.62
2018-09-12T16:09:01.764Z,101690.58
2018-09-12T16:14:07.538Z,101687.86
2018-09-12T16:19:11.877Z,101688.56
2018-09-12T16:24:19.145Z,101693.53
2018-09-12T16:29:23.508Z,101697.72
2018-09-12T16:34:28.106Z,101701.69
2018-09-12T16:39:31.299Z,101707.08
2018-09-12T16:44:37.450Z,101706.79
2018-09-12T16:49:43.118Z,101698.22
2018-09-12T16:54:46.206Z,101704.52
2018-09-12T16:59:49.307Z,101709.31
2018-09-12T17:04:52.688Z,101710.81
2018-09-12T17:09:57.028Z,101711.46
2018-09-12T17:15:00.762Z,101715.98
2018-09-12T17:20:05.361Z,101718.48
2018-09-12T17:25:13.391Z,101732.88
2018-09-12T17:30:16.457Z,101737.55
2018-09-12T17:35:19.497Z,101724.06
2018-09-12T17:40:23.658Z,101737.19
2018-09-12T17:45:26.769Z,101744.28
2018-09-12T17:50:30.253Z,101745.84
2018-09-12T17:55:35.848Z,101749.25
2018-09-12T18:00:42.087Z,101741.95
2018-09-12T18:05:46.464Z,101735.84
2018-09-12T18:10:49.800Z,101740.79
2018-09-12T18:15:52.862Z,101753.76
2018-09-12T18:20:56.139Z,101757.27
2018-09-12T18:25:59.193Z,101769.68
2018-09-12T18:31:05.509Z,101769.73
2018-09-12T18:36:11.207Z,101776.88
2018-09-12T18:41:15.593Z,101784.79
2018-09-12T18:46:18.599Z,101788.77
2018-09-12T18:51:21.707Z,101786.11
2018-09-12T18:56:24.767Z,101793.88
2018-09-12T19:01:27.810Z,101796.90
2018-09-12T19:06:32.046Z,101787.86
2018-09-12T19:11:37.533Z,101785.81
2018-09-12T19:16:42.644Z,101779.86
2018-09-12T19:21:47.671Z,101782.23
2018-09-12T19:26:51.009Z,101794.95
2018-09-12T19:31:54.139Z,101793.80
2018-09-12T19:36:57.674Z,101806.72
2018-09-12T19:42:02.686Z,101799.11
2018-09-12T19:47:08.834Z,101801.75
2018-09-12T19:52:12.990Z,101804.55
2018-09-12T19:57:17.930Z,101805.03
2018-09-12T20:02:26.787Z,101812.78
2018-09-12T20:07:31.334Z,101809.87
2018-09-12T20:12:36.598Z,101825.25
2018-09-12T20:17:41.281Z,101831.94
2018-09-12T20:22:46.842Z,101813.97
2018-09-12T20:27:51.379Z,101808.31
2018-09-12T20:32:56.038Z,101806.34
2018-09-12T20:37:59.151Z,101808.53
2018-09-12T20:43:02.719Z,101802.80
2018-09-12T20:48:08.420Z,101806.41
2018-09-12T20:53:15.174Z,101806.76
2018-09-12T20:58:19.407Z,101798.93
2018-09-12T21:03:22.439Z,101801.55
2018-09-12T21:08:25.474Z,101793.21
2018-09-12T21:13:28.519Z,101801.44
2018-09-12T21:18:31.562Z,101798.05
2018-09-12T21:23:41.936Z,101807.78
2018-09-12T21:28:46.726Z,101812.21
2018-09-12T21:33:49.901Z,101792.09
2018-09-12T21:38:53.249Z,101786.19
2018-09-12T21:43:56.272Z,101776.36
2018-09-12T21:48:59.346Z,101795.62
2018-09-12T21:54:02.349Z,101788.91
2018-09-12T21:59:10.148Z,101798.17
2018-09-12T22:04:13.931Z,101791.64
2018-09-12T22:09:19.758Z,101795.38
2018-09-12T22:14:22.797Z,101802.61
2018-09-12T22:19:25.815Z,101805.38
2018-09-12T22:24:28.989Z,101816.61
2018-09-12T22:29:33.569Z,101819.11
2018-09-12T22:34:40.243Z,101809.58
2018-09-12T22:39:43.846Z,101809.66
2018-09-12T22:44:46.879Z,101807.86
2018-09-12T22:49:49.937Z,101807.86
2018-09-12T22:54:52.934Z,101810.41
2018-09-12T22:59:57.080Z,101812.38
2018-09-12T23:05:00.677Z,101813.47
2018-09-12T23:10:07.398Z,101806.66
2018-09-12T23:15:13.979Z,101803.94
2018-09-12T23:20:17.112Z,101790.50
2018-09-12T23:25:20.196Z,101801.17
2018-09-12T23:30:23.306Z,101791.24
2018-09-12T23:35:27.184Z,101790.59
2018-09-12T23:40:31.137Z,101785.36
2018-09-12T23:45:35.759Z,101795.03
2018-09-12T23:50:40.768Z,101785.13
2018-09-12T23:55:44.901Z,101784.73
